createdAt,value
2023-03-18T00:01:28.537Z,-23561.94
2023-03-18T00:03:31.425Z,-23559.56
2023-03-18T00:05:34.377Z,-23557.50
2023-03-18T00:07:37.772Z,-23553.69
2023-03-18T00:09:42.426Z,-23554.19
2023-03-18T00:11:46.066Z,-23555.91
2023-03-18T00:13:49.236Z,-23553.22
2023-03-18T00:15:52.809Z,-23551.16
2023-03-18T00:17:56.022Z,-23551.81
2023-03-18T00:20:05.569Z,-23553.06
2023-03-18T00:22:10.279Z,-23554.81
2023-03-18T00:24:13.071Z,-23555.91
2023-03-18T00:26:17.296Z,-23552.91
2023-03-18T00:28:20.533Z,-23551.97
2023-03-18T00:30:23.981Z,-23550.53
2023-03-18T00:32:28.069Z,-23548.31
2023-03-18T00:34:30.809Z,-23545.31
2023-03-18T00:36:33.459Z,-23544.22
2023-03-18T00:38:37.338Z,-23542.63
2023-03-18T00:40:53.245Z,-23541.03
2023-03-18T00:43:07.770Z,-23538.50
2023-03-18T00:45:12.018Z,-23538.19
2023-03-18T00:47:14.765Z,-23540.41
2023-03-18T00:49:17.828Z,-23539.16
2023-03-18T00:51:22.840Z,-23537.72
2023-03-18T00:53:26.140Z,-23539.16
2023-03-18T00:55:28.931Z,-23537.09
2023-03-18T00:57:32.160Z,-23535.34
2023-03-18T00:59:36.128Z,-23536.59
2023-03-18T01:01:39.261Z,-23536.59
2023-03-18T01:03:43.413Z,-23537.56
2023-03-18T01:05:46.112Z,-23538.84
2023-03-18T01:07:49.166Z,-23540.72
2023-03-18T01:09:51.780Z,-23540.56
2023-03-18T01:11:54.541Z,-23540.41
2023-03-18T01:13:59.346Z,-23541.69
2023-03-18T01:16:03.512Z,-23540.25
2023-03-18T01:18:06.350Z,-23539.16
2023-03-18T01:20:11.561Z,-23538.34
2023-03-18T01:22:14.552Z,-23539.16
2023-03-18T01:24:17.174Z,-23542.00
2023-03-18T01:26:19.903Z,-23542.00
2023-03-18T01:28:23.414Z,-23541.53
2023-03-18T01:30:26.366Z,-23540.09
2023-03-18T01:32:30.484Z,-23542.00
2023-03-18T01:34:34.237Z,-23540.56
2023-03-18T01:36:37.060Z,-23538.19
2023-03-18T01:38:40.824Z,-23536.59
2023-03-18T01:40:43.924Z,-23535.81
2023-03-18T01:42:49.926Z,-23533.91
2023-03-18T01:45:18.017Z,-23536.94
2023-03-18T01:47:21.692Z,-23536.59
2023-03-18T01:49:29.079Z,-23535.34
2023-03-18T01:51:32.264Z,-23536.28
2023-03-18T01:53:39.893Z,-23537.25
2023-03-18T01:55:45.119Z,-23532.97
2023-03-18T01:57:50.040Z,-23533.59
2023-03-18T01:59:55.236Z,-23540.09
2023-03-18T02:02:02.846Z,-23540.09
2023-03-18T02:04:07.474Z,-23540.09
2023-03-18T02:06:12.292Z,-23536.94
2023-03-18T02:08:15.629Z,-23538.19
2023-03-18T02:10:20.579Z,-23535.03
2023-03-18T02:12:25.207Z,-23537.25
2023-03-18T02:14:28.287Z,-23539.16
2023-03-18T02:16:39.992Z,-23535.34
2023-03-18T02:18:47.967Z,-23534.72
2023-03-18T02:21:08.136Z,-23529.97
2023-03-18T02:23:22.694Z,-23527.28
2023-03-18T02:25:37.385Z,-23525.53
2023-03-18T02:27:43.011Z,-23522.69
2023-03-18T02:29:47.817Z,-23521.56
2023-03-18T02:31:51.813Z,-23518.41
2023-03-18T02:33:55.309Z,-23519.50
2023-03-18T02:36:03.058Z,-23515.56
2023-03-18T02:38:06.073Z,-23515.41
2023-03-18T02:40:19.981Z,-23514.44
2023-03-18T02:42:29.864Z,-23514.44
2023-03-18T02:44:39.290Z,-23510.50
2023-03-18T02:46:53.893Z,-23514.44
2023-03-18T02:48:58.102Z,-23514.28
2023-03-18T02:51:00.741Z,-23515.25
2023-03-18T02:53:05.866Z,-23512.72
2023-03-18T02:55:09.286Z,-23512.53
2023-03-18T02:57:11.937Z,-23510.97
2023-03-18T02:59:15.388Z,-23510.31
2023-03-18T03:01:20.608Z,-23509.84
2023-03-18T03:03:23.424Z,-23508.75
2023-03-18T03:05:26.445Z,-23507.63
2023-03-18T03:07:29.059Z,-23507.63
2023-03-18T03:09:31.932Z,-23510.00
2023-03-18T03:11:34.711Z,-23511.28
2023-03-18T03:13:38.887Z,-23510.00
2023-03-18T03:15:42.678Z,-23509.38
2023-03-18T03:17:48.285Z,-23510.16
2023-03-18T03:19:51.150Z,-23510.00
2023-03-18T03:21:53.912Z,-23511.28
2023-03-18T03:23:56.928Z,-23509.22
2023-03-18T03:25:59.621Z,-23510.66
2023-03-18T03:28:02.962Z,-23512.53
2023-03-18T03:30:07.554Z,-23509.38
2023-03-18T03:32:10.666Z,-23510.00
2023-03-18T03:34:14.703Z,-23510.31
2023-03-18T03:36:18.753Z,-23511.28
2023-03-18T03:38:23.085Z,-23512.84
2023-03-18T03:40:27.564Z,-23506.69
2023-03-18T03:42:30.175Z,-23506.22
2023-03-18T03:44:32.820Z,-23507.63
2023-03-18T03:46:35.518Z,-23504.31
2023-03-18T03:48:39.370Z,-23502.72
2023-03-18T03:50:43.381Z,-23506.22
2023-03-18T03:52:47.072Z,-23506.53
2023-03-18T03:54:50.295Z,-23509.69
2023-03-18T03:56:53.358Z,-23504.78
2023-03-18T03:58:55.976Z,-23503.03
2023-03-18T04:00:58.737Z,-23505.41
2023-03-18T04:03:01.668Z,-23505.25
2023-03-18T04:05:04.497Z,-23504.94
2023-03-18T04:07:08.953Z,-23506.06
2023-03-18T04:09:11.743Z,-23506.22
2023-03-18T04:11:14.398Z,-23507.78
2023-03-18T04:13:17.146Z,-23503.69
2023-03-18T04:15:22.042Z,-23501.28
2023-03-18T04:17:24.818Z,-23502.88
2023-03-18T04:19:28.945Z,-23500.66
2023-03-18T04:21:31.713Z,-23497.97
2023-03-18T04:23:35.889Z,-23497.19
2023-03-18T04:25:38.782Z,-23500.66
2023-03-18T04:27:41.775Z,-23499.06
2023-03-18T04:29:44.710Z,-23499.41
2023-03-18T04:31:47.527Z,-23499.06
2023-03-18T04:33:50.407Z,-23499.72
2023-03-18T04:35:53.459Z,-23499.25
2023-03-18T04:37:56.208Z,-23497.97
2023-03-18T04:40:00.461Z,-23498.94
2023-03-18T04:42:03.307Z,-23497.66
2023-03-18T04:44:06.283Z,-23498.75
2023-03-18T04:46:08.885Z,-23498.59
2023-03-18T04:48:11.735Z,-23494.16
2023-03-18T04:50:14.942Z,-23495.91
2023-03-18T04:52:17.611Z,-23493.84
2023-03-18T04:54:20.307Z,-23497.03
2023-03-18T04:56:24.539Z,-23495.44
2023-03-18T04:58:27.381Z,-23493.38
2023-03-18T05:00:30.088Z,-23493.53
2023-03-18T05:02:32.762Z,-23499.88
2023-03-18T05:04:37.519Z,-23497.03
2023-03-18T05:06:47.390Z,-23495.28
2023-03-18T05:08:51.438Z,-23493.84
2023-03-18T05:10:54.114Z,-23492.75
2023-03-18T05:12:58.102Z,-23495.13
2023-03-18T05:15:00.804Z,-23495.91
2023-03-18T05:17:03.854Z,-23492.59
2023-03-18T05:19:06.501Z,-23493.53
2023-03-18T05:21:10.160Z,-23492.25
2023-03-18T05:23:12.823Z,-23492.44
2023-03-18T05:25:15.696Z,-23490.38
2023-03-18T05:27:19.950Z,-23483.53
2023-03-18T05:29:24.622Z,-23478.47
2023-03-18T05:31:27.348Z,-23473.72
2023-03-18T05:33:30.334Z,-23470.69
2023-03-18T05:35:33.287Z,-23468.97
2023-03-18T05:37:36.860Z,-23467.06
2023-03-18T05:39:39.745Z,-23465.94
2023-03-18T05:41:42.358Z,-23464.53
2023-03-18T05:43:45.064Z,-23462.78
2023-03-18T05:45:50.131Z,-23460.88
2023-03-18T05:47:53.019Z,-23459.59
2023-03-18T05:49:55.689Z,-23459.75
2023-03-18T05:51:58.400Z,-23457.69
2023-03-18T05:54:01.039Z,-23460.41
2023-03-18T05:56:03.739Z,-23460.56
2023-03-18T05:58:06.625Z,-23460.09
2023-03-18T06:00:10.553Z,-23461.19
2023-03-18T06:02:14.630Z,-23458.50
2023-03-18T06:04:19.144Z,-23455.47
2023-03-18T06:06:21.914Z,-23455.31
2023-03-18T06:08:25.297Z,-23458.66
2023-03-18T06:10:28.939Z,-23454.69
2023-03-18T06:12:31.625Z,-23456.44
2023-03-18T06:14:34.446Z,-23457.69
2023-03-18T06:16:37.276Z,-23456.75
2023-03-18T06:18:41.797Z,-23458.03
2023-03-18T06:20:44.365Z,-23459.44
2023-03-18T06:22:49.703Z,-23459.13
2023-03-18T06:24:52.650Z,-23460.88
2023-03-18T06:26:55.423Z,-23459.91
2023-03-18T06:28:58.902Z,-23460.09
2023-03-18T06:31:02.726Z,-23460.56
2023-03-18T06:33:05.861Z,-23460.88
2023-03-18T06:35:11.697Z,-23460.72
2023-03-18T06:37:15.220Z,-23461.81
2023-03-18T06:39:17.892Z,-23461.34
2023-03-18T06:41:20.568Z,-23460.25
2023-03-18T06:43:23.368Z,-23461.50
2023-03-18T06:45:26.492Z,-23464.03
2023-03-18T06:47:29.558Z,-23464.69
2023-03-18T06:49:32.669Z,-23467.53
2023-03-18T06:51:36.701Z,-23468.16
2023-03-18T06:53:39.696Z,-23470.38
2023-03-18T06:55:43.162Z,-23471.66
2023-03-18T06:57:46.570Z,-23473.56
2023-03-18T06:59:49.607Z,-23473.25
2023-03-18T07:01:52.394Z,-23471.34
2023-03-18T07:03:55.529Z,-23471.50
2023-03-18T07:05:58.153Z,-23473.88
2023-03-18T07:08:02.872Z,-23475.78
2023-03-18T07:10:06.910Z,-23481.31
2023-03-18T07:12:10.878Z,-23482.44
2023-03-18T07:14:14.481Z,-23485.28
2023-03-18T07:16:17.392Z,-23496.38
2023-03-18T07:18:20.161Z,-23510.66
2023-03-18T07:20:23.595Z,-23528.69
2023-03-18T07:22:26.337Z,-23524.91
2023-03-18T07:24:30.340Z,-23537.56
2023-03-18T07:26:33.118Z,-23551.97
2023-03-18T07:28:35.873Z,-23554.50
2023-03-18T07:30:39.524Z,-23578.06
2023-03-18T07:32:42.201Z,-23581.84
2023-03-18T07:34:44.882Z,-23622.91
2023-03-18T07:36:47.477Z,-23618.50
2023-03-18T07:38:50.100Z,-23589.75
2023-03-18T07:40:54.051Z,-23599.53
2023-03-18T07:42:56.698Z,-23583.28
2023-03-18T07:44:59.340Z,-23584.06
2023-03-18T07:47:02.333Z,-23608.38
2023-03-18T07:49:05.035Z,-23590.53
2023-03-18T07:51:08.246Z,-23599.53
2023-03-18T07:53:12.438Z,-23616.59
2023-03-18T07:55:15.573Z,-23605.38
2023-03-18T07:57:19.636Z,-23604.59
2023-03-18T07:59:22.258Z,-23622.28
2023-03-18T08:01:25.667Z,-23621.50
2023-03-18T08:03:28.886Z,-23633.66
2023-03-18T08:05:31.970Z,-23642.00
2023-03-18T08:07:35.608Z,-23643.59
2023-03-18T08:09:38.298Z,-23668.66
2023-03-18T08:11:41.612Z,-23665.19
2023-03-18T08:13:45.757Z,-23679.84
2023-03-18T08:15:48.400Z,-23683.78
2023-03-18T08:17:51.335Z,-23653.22
2023-03-18T08:19:54.081Z,-23642.97
2023-03-18T08:21:57.503Z,-23663.00
2023-03-18T08:24:00.400Z,-23675.28
2023-03-18T08:26:03.139Z,-23679.38
2023-03-18T08:28:07.512Z,-23648.16
2023-03-18T08:30:13.637Z,-23673.41
2023-03-18T08:32:16.663Z,-23662.53
2023-03-18T08:34:19.558Z,-23642.16
2023-03-18T08:36:22.563Z,-23633.34
2023-03-18T08:38:25.784Z,-23650.69
2023-03-18T08:40:28.529Z,-23664.09
2023-03-18T08:42:31.159Z,-23694.19
2023-03-18T08:44:34.093Z,-23717.97
2023-03-18T08:46:38.157Z,-23691.34
2023-03-18T08:48:41.755Z,-23718.75
2023-03-18T08:50:44.400Z,-23781.34
2023-03-18T08:52:47.268Z,-23759.19
2023-03-18T08:54:50.362Z,-23761.84
2023-03-18T08:56:55.236Z,-23742.66
2023-03-18T08:58:57.953Z,-23748.78
2023-03-18T09:01:03.204Z,-23726.00
2023-03-18T09:03:07.555Z,-23735.59
2023-03-18T09:05:11.041Z,-23730.72
2023-03-18T09:07:14.691Z,-23745.03
2023-03-18T09:09:17.468Z,-23717.03
2023-03-18T09:11:20.866Z,-23746.13
2023-03-18T09:13:23.736Z,-23749.91
2023-03-18T09:15:27.598Z,-23730.41
2023-03-18T09:17:46.888Z,-23765.16
2023-03-18T09:19:52.980Z,-23814.59
2023-03-18T09:21:56.146Z,-23797.34
2023-03-18T09:23:59.057Z,-23819.94
2023-03-18T09:26:02.290Z,-23849.88
2023-03-18T09:28:05.161Z,-23799.53
2023-03-18T09:30:09.363Z,-23790.13
2023-03-18T09:32:12.001Z,-23795.94
2023-03-18T09:34:14.740Z,-23837.81
2023-03-18T09:36:19.349Z,-23875.41
2023-03-18T09:38:22.513Z,-23872.59
2023-03-18T09:40:29.060Z,-23889.03
2023-03-18T09:42:48.504Z,-23917.00
2023-03-18T09:44:56.132Z,-23885.41
2023-03-18T09:47:14.430Z,-23849.09
2023-03-18T09:49:39.817Z,-23850.34
2023-03-18T09:51:54.578Z,-23891.06
2023-03-18T09:54:03.477Z,-23917.31
2023-03-18T09:56:13.251Z,-23847.84
2023-03-18T09:58:23.490Z,-23887.63
2023-03-18T10:00:30.387Z,-23810.84
2023-03-18T10:02:38.630Z,-23817.75
2023-03-18T10:04:45.271Z,-23895.13
2023-03-18T10:06:52.394Z,-23904.50
2023-03-18T10:09:01.957Z,-23804.25
2023-03-18T10:11:10.849Z,-23826.69
2023-03-18T10:13:18.336Z,-23840.63
2023-03-18T10:15:25.003Z,-23860.38
2023-03-18T10:17:32.621Z,-23844.41
2023-03-18T10:19:37.646Z,-23819.47
2023-03-18T10:21:46.606Z,-23871.97
2023-03-18T10:24:00.049Z,-23878.22
2023-03-18T10:26:07.130Z,-23838.91
2023-03-18T10:28:37.690Z,-23833.91
2023-03-18T10:30:58.715Z,-23824.16
2023-03-18T10:33:09.848Z,-23769.69
2023-03-18T10:35:27.405Z,-23791.84
2023-03-18T10:37:42.500Z,-23793.88
2023-03-18T10:39:49.434Z,-23801.56
2023-03-18T10:41:54.217Z,-23803.31
2023-03-18T10:43:58.505Z,-23833.91
2023-03-18T10:46:04.517Z,-23835.94
2023-03-18T10:48:16.835Z,-23781.00
2023-03-18T10:50:25.429Z,-23783.53
2023-03-18T10:52:37.393Z,-23808.97
2023-03-18T10:54:42.516Z,-23757.75
2023-03-18T10:56:46.922Z,-23777.41
2023-03-18T10:58:52.541Z,-23734.31
2023-03-18T11:00:55.213Z,-23752.88
2023-03-18T11:02:58.404Z,-23738.72
2023-03-18T11:05:07.802Z,-23755.25
2023-03-18T11:07:18.740Z,-23733.38
2023-03-18T11:09:23.710Z,-23733.56
2023-03-18T11:11:32.400Z,-23736.06
2023-03-18T11:13:37.607Z,-23735.13
2023-03-18T11:15:45.832Z,-23732.28
2023-03-18T11:17:51.793Z,-23723.78
2023-03-18T11:20:05.814Z,-23725.69
2023-03-18T11:22:20.376Z,-23724.09
2023-03-18T11:24:36.304Z,-23720.97
2023-03-18T11:26:47.155Z,-23717.66
2023-03-18T11:28:56.158Z,-23714.34
2023-03-18T11:31:04.303Z,-23723.47
2023-03-18T11:33:15.443Z,-23723.00
2023-03-18T11:35:21.659Z,-23720.50
2023-03-18T11:37:30.777Z,-23717.81
2023-03-18T11:39:37.606Z,-23717.19
2023-03-18T11:41:41.105Z,-23725.22
2023-03-18T11:43:59.305Z,-23719.69
2023-03-18T11:46:05.768Z,-23723.47
2023-03-18T11:48:14.431Z,-23739.84
2023-03-18T11:50:23.742Z,-23731.66
2023-03-18T11:52:40.117Z,-23737.94
2023-03-18T11:55:10.802Z,-23736.06
2023-03-18T11:57:20.346Z,-23750.38
2023-03-18T11:59:45.154Z,-23759.19
2023-03-18T12:01:58.588Z,-23748.16
2023-03-18T12:04:37.210Z,-23739.22
2023-03-18T12:06:49.786Z,-23728.50
2023-03-18T12:09:05.056Z,-23740.78
2023-03-18T12:11:13.028Z,-23743.91
2023-03-18T12:13:31.665Z,-23743.13
2023-03-18T12:15:44.930Z,-23759.19
2023-03-18T12:17:59.468Z,-23757.91
2023-03-18T12:20:35.874Z,-23753.03
2023-03-18T12:22:53.127Z,-23755.25
2023-03-18T12:25:14.334Z,-23745.81
2023-03-18T12:27:26.940Z,-23759.66
2023-03-18T12:29:47.006Z,-23776.31
2023-03-18T12:32:11.248Z,-23769.88
2023-03-18T12:34:29.611Z,-23761.22
2023-03-18T12:36:50.191Z,-23740.78
2023-03-18T12:39:21.660Z,-23760.59
2023-03-18T12:41:37.151Z,-23771.75
2023-03-18T12:43:53.368Z,-23766.25
2023-03-18T12:46:04.618Z,-23780.53
2023-03-18T12:48:14.875Z,-23771.44
2023-03-18T12:50:20.505Z,-23777.56
2023-03-18T12:52:31.303Z,-23782.28
2023-03-18T12:54:40.724Z,-23768.44
2023-03-18T12:56:50.918Z,-23760.75
2023-03-18T12:58:56.993Z,-23760.28
2023-03-18T13:01:07.174Z,-23758.06
2023-03-18T13:03:24.647Z,-23770.16
2023-03-18T13:05:36.835Z,-23786.97
2023-03-18T13:07:47.936Z,-23779.59
2023-03-18T13:09:56.525Z,-23765.78
2023-03-18T13:12:07.363Z,-23779.91
2023-03-18T13:14:19.397Z,-23800.31
2023-03-18T13:16:25.339Z,-23807.69
2023-03-18T13:18:36.405Z,-23789.50
2023-03-18T13:20:40.816Z,-23800.47
2023-03-18T13:23:11.055Z,-23785.09
2023-03-18T13:25:21.048Z,-23788.88
2023-03-18T13:27:49.914Z,-23805.50
2023-03-18T13:29:59.879Z,-23808.03
2023-03-18T13:32:13.956Z,-23786.97
2023-03-18T13:35:13.314Z,-23784.16
2023-03-18T13:37:57.465Z,-23776.13
2023-03-18T13:40:34.017Z,-23768.13
2023-03-18T13:42:38.613Z,-23761.22
2023-03-18T13:44:46.201Z,-23751.47
2023-03-18T13:46:58.725Z,-23763.09
2023-03-18T13:49:03.848Z,-23765.94
2023-03-18T13:51:21.791Z,-23761.06
2023-03-18T13:53:28.696Z,-23762.78
2023-03-18T13:55:35.133Z,-23766.09
2023-03-18T13:57:49.009Z,-23776.47
2023-03-18T13:59:51.769Z,-23767.19
2023-03-18T14:01:55.046Z,-23771.59
2023-03-18T14:04:02.948Z,-23776.31
2023-03-18T14:06:24.850Z,-23767.19
2023-03-18T14:08:51.323Z,-23763.25
2023-03-18T14:11:45.422Z,-23764.03
2023-03-18T14:13:52.259Z,-23774.72
2023-03-18T14:15:58.027Z,-23761.69
2023-03-18T14:18:00.971Z,-23767.19
2023-03-18T14:20:17.112Z,-23767.19
2023-03-18T14:22:24.716Z,-23759.34
2023-03-18T14:24:29.262Z,-23753.22
2023-03-18T14:26:32.549Z,-23756.50
2023-03-18T14:28:47.422Z,-23755.56
2023-03-18T14:30:57.258Z,-23752.41
2023-03-18T14:33:03.106Z,-23752.09
2023-03-18T14:35:28.302Z,-23756.97
2023-03-18T14:37:32.543Z,-23759.66
2023-03-18T14:39:39.117Z,-23768.44
2023-03-18T14:41:46.726Z,-23758.06
2023-03-18T14:44:02.279Z,-23754.78
2023-03-18T14:46:14.242Z,-23760.91
2023-03-18T14:48:21.478Z,-23762.00
2023-03-18T14:50:30.886Z,-23757.59
2023-03-18T15:09:49.775Z,-23749.91
2023-03-18T15:11:52.638Z,-23747.38
2023-03-18T15:14:00.102Z,-23749.91
2023-03-18T15:16:06.077Z,-23751.47
2023-03-18T15:18:19.557Z,-23743.44
2023-03-18T15:20:24.094Z,-23738.56
2023-03-18T15:22:30.630Z,-23741.56
2023-03-18T15:24:33.514Z,-23740.16
2023-03-18T15:26:39.710Z,-23741.09
2023-03-18T15:28:43.326Z,-23742.19
2023-03-18T15:30:54.249Z,-23745.81
2023-03-18T15:33:04.721Z,-23740.47
2023-03-18T15:35:16.493Z,-23741.56
2023-03-18T15:37:34.235Z,-23745.19
2023-03-18T15:39:38.287Z,-23747.22
2023-03-18T15:41:42.409Z,-23739.84
2023-03-18T15:43:46.990Z,-23743.44
2023-03-18T15:45:55.366Z,-23745.34
2023-03-18T15:47:59.472Z,-23745.97
2023-03-18T15:50:10.579Z,-23740.78
2023-03-18T15:52:18.081Z,-23735.13
2023-03-18T15:54:28.001Z,-23723.78
2023-03-18T15:56:33.176Z,-23726.00
2023-03-18T15:58:39.093Z,-23713.09
2023-03-18T16:00:42.160Z,-23714.97
2023-03-18T16:02:44.942Z,-23709.31
2023-03-18T16:04:48.644Z,-23707.25
2023-03-18T16:06:52.400Z,-23698.91
2023-03-18T16:08:55.517Z,-23699.38
2023-03-18T16:11:03.925Z,-23696.41
2023-03-18T16:41:05.786Z,-23680.00
2023-03-18T16:43:17.450Z,-23671.03
2023-03-18T16:45:22.446Z,-23672.28
2023-03-18T16:47:28.352Z,-23666.63
2023-03-18T16:49:33.163Z,-23670.09
2023-03-18T16:51:35.775Z,-23665.50
2023-03-18T16:53:38.451Z,-23663.63
2023-03-18T16:55:41.193Z,-23658.75
2023-03-18T16:57:48.899Z,-23657.00
2023-03-18T16:59:55.704Z,-23655.28
2023-03-18T17:01:58.426Z,-23652.91
2023-03-18T17:04:01.130Z,-23650.06
2023-03-18T17:06:04.507Z,-23649.91
2023-03-18T17:08:07.153Z,-23647.06
2023-03-18T17:10:11.032Z,-23648.00
2023-03-18T17:12:15.947Z,-23644.69
2023-03-18T17:14:30.794Z,-23645.00
2023-03-18T17:16:33.811Z,-23647.69
2023-03-18T17:18:36.516Z,-23636.97
2023-03-18T17:20:39.166Z,-23638.22
2023-03-18T17:22:43.204Z,-23637.44
2023-03-18T17:24:45.786Z,-23633.97
2023-03-18T17:26:49.101Z,-23633.81
2023-03-18T17:28:53.918Z,-23634.28
2023-03-18T17:30:58.097Z,-23629.72
2023-03-18T17:33:01.160Z,-23627.97
2023-03-18T17:35:03.905Z,-23628.91
2023-03-18T17:37:06.498Z,-23627.66
2023-03-18T17:39:09.738Z,-23625.44
2023-03-18T17:41:17.980Z,-23624.50
2023-03-18T17:43:27.453Z,-23622.75
2023-03-18T17:45:32.178Z,-23621.03
2023-03-18T17:47:36.715Z,-23617.88
2023-03-18T17:49:39.653Z,-23619.13
2023-03-18T17:51:42.381Z,-23620.09
2023-03-18T17:53:47.883Z,-23617.88
2023-03-18T17:55:50.728Z,-23616.91
2023-03-18T17:57:53.340Z,-23616.91
2023-03-18T17:59:56.985Z,-23616.75
2023-03-18T18:01:59.780Z,-23616.28
2023-03-18T18:04:04.944Z,-23616.13
2023-03-18T18:06:08.183Z,-23613.75
2023-03-18T18:08:14.762Z,-23614.72
2023-03-18T18:10:19.444Z,-23612.19
2023-03-18T18:12:24.997Z,-23605.53
2023-03-18T18:14:31.745Z,-23610.28
2023-03-18T18:16:34.398Z,-23610.91
2023-03-18T18:18:38.020Z,-23609.34
2023-03-18T18:20:42.320Z,-23607.13
2023-03-18T18:22:48.369Z,-23605.06
2023-03-18T18:24:52.269Z,-23606.66
2023-03-18T18:26:55.309Z,-23606.66
2023-03-18T18:28:57.953Z,-23602.41
2023-03-18T18:31:02.047Z,-23604.91
2023-03-18T18:33:05.141Z,-23605.72
2023-03-18T18:35:08.545Z,-23607.44
2023-03-18T18:37:12.787Z,-23605.53
2023-03-18T18:39:15.416Z,-23607.44
2023-03-18T18:41:18.033Z,-23598.91
2023-03-18T18:43:20.803Z,-23596.88
2023-03-18T18:45:23.443Z,-23598.28
2023-03-18T18:47:26.167Z,-23596.38
2023-03-18T18:49:28.784Z,-23598.75
2023-03-18T18:51:31.497Z,-23596.69
2023-03-18T18:53:37.376Z,-23597.66
2023-03-18T18:55:40.378Z,-23595.13
2023-03-18T18:57:43.497Z,-23598.75
2023-03-18T18:59:46.474Z,-23595.28
2023-03-18T19:01:49.192Z,-23594.34
2023-03-18T19:03:52.261Z,-23593.53
2023-03-18T19:05:56.374Z,-23590.06
2023-03-18T19:07:58.957Z,-23588.81
2023-03-18T19:10:03.177Z,-23589.59
2023-03-18T19:12:15.422Z,-23586.91
2023-03-18T19:14:21.760Z,-23587.06
2023-03-18T19:16:31.270Z,-23587.69
2023-03-18T19:18:38.417Z,-23586.44
2023-03-18T19:20:41.920Z,-23585.97
2023-03-18T19:22:44.622Z,-23587.53
2023-03-18T19:24:49.411Z,-23587.84
2023-03-18T19:26:53.813Z,-23587.22
2023-03-18T19:28:59.852Z,-23588.50
2023-03-18T19:31:02.682Z,-23586.28
2023-03-18T19:33:14.361Z,-23585.16
2023-03-18T19:35:17.417Z,-23584.06
2023-03-18T19:37:24.770Z,-23585.16
2023-03-18T19:39:28.180Z,-23583.28
2023-03-18T19:41:31.205Z,-23582.78
2023-03-18T19:43:35.156Z,-23584.53
2023-03-18T19:45:37.843Z,-23583.59
2023-03-18T19:47:41.890Z,-23579.00
2023-03-18T19:49:44.747Z,-23579.47
2023-03-18T19:51:48.940Z,-23581.53
2023-03-18T19:53:52.413Z,-23579.16
2023-03-18T19:55:55.214Z,-23576.78
2023-03-18T19:57:58.564Z,-23574.88
2023-03-18T20:00:05.848Z,-23571.41
2023-03-18T20:02:23.404Z,-23571.56
2023-03-18T20:04:28.243Z,-23571.09
2023-03-18T20:06:30.977Z,-23565.88
2023-03-18T20:08:33.662Z,-23566.81
2023-03-18T20:10:36.605Z,-23566.66
2023-03-18T20:12:40.379Z,-23567.94
2023-03-18T20:14:42.978Z,-23567.16
2023-03-18T20:16:47.169Z,-23566.34
2023-03-18T20:18:49.842Z,-23565.56
2023-03-18T20:20:52.698Z,-23565.56
2023-03-18T20:22:59.255Z,-23567.47
2023-03-18T20:25:02.130Z,-23568.09
2023-03-18T20:27:05.488Z,-23568.56
2023-03-18T20:29:16.994Z,-23569.50
2023-03-18T20:31:19.590Z,-23567.94
2023-03-18T20:33:24.104Z,-23567.94
2023-03-18T20:35:29.464Z,-23566.34
2023-03-18T20:37:35.976Z,-23566.03
2023-03-18T20:39:38.713Z,-23565.72
2023-03-18T20:41:41.379Z,-23565.09
2023-03-18T20:43:44.452Z,-23563.66
2023-03-18T20:45:47.147Z,-23564.78
2023-03-18T20:47:50.196Z,-23562.88
2023-03-18T20:49:54.833Z,-23559.22
2023-03-18T20:51:57.918Z,-23560.03
2023-03-18T20:54:00.763Z,-23561.94
2023-03-18T20:56:03.360Z,-23561.13
2023-03-18T20:58:10.228Z,-23560.81
2023-03-18T21:00:16.825Z,-23560.66
2023-03-18T21:02:28.190Z,-23558.75
2023-03-18T21:04:31.034Z,-23555.13
2023-03-18T21:06:35.228Z,-23557.50
2023-03-18T21:08:38.081Z,-23559.56
2023-03-18T21:10:40.812Z,-23558.28
2023-03-18T21:12:43.844Z,-23558.91
2023-03-18T21:14:47.189Z,-23558.59
2023-03-18T21:16:51.744Z,-23559.88
2023-03-18T21:18:54.624Z,-23559.22
2023-03-18T21:20:57.831Z,-23557.97
2023-03-18T21:23:02.581Z,-23558.44
2023-03-18T21:25:08.832Z,-23558.44
2023-03-18T21:27:19.789Z,-23557.81
2023-03-18T21:29:22.891Z,-23557.19
2023-03-18T21:31:27.667Z,-23554.97
2023-03-18T21:33:32.663Z,-23554.34
2023-03-18T21:35:36.566Z,-23553.38
2023-03-18T21:37:39.379Z,-23552.13
2023-03-18T21:39:43.885Z,-23548.63
2023-03-18T21:41:46.634Z,-23549.28
2023-03-18T21:43:50.060Z,-23548.63
2023-03-18T21:45:52.797Z,-23544.22
2023-03-18T21:47:55.513Z,-23542.94
2023-03-18T21:49:58.098Z,-23541.19
2023-03-18T21:52:00.952Z,-23538.19
2023-03-18T21:54:03.616Z,-23537.25
2023-03-18T21:56:10.494Z,-23531.22
2023-03-18T21:58:16.991Z,-23522.53
2023-03-18T22:00:21.243Z,-23519.34
2023-03-18T22:02:29.218Z,-23523.00
2023-03-18T22:04:31.872Z,-23525.69
2023-03-18T22:06:34.591Z,-23527.28
2023-03-18T22:08:37.266Z,-23526.31
2023-03-18T22:10:41.085Z,-23525.22
2023-03-18T22:12:45.496Z,-23526.94
2023-03-18T22:14:48.129Z,-23527.59
2023-03-18T22:16:50.960Z,-23527.28
2023-03-18T22:18:53.557Z,-23522.53
2023-03-18T22:20:57.373Z,-23523.31
2023-03-18T22:23:00.053Z,-23520.78
2023-03-18T22:25:02.724Z,-23511.91
2023-03-18T22:27:05.460Z,-23514.28
2023-03-18T22:29:09.480Z,-23514.13
2023-03-18T22:31:19.704Z,-23514.75
2023-03-18T22:33:26.540Z,-23513.66
2023-03-18T22:35:30.874Z,-23515.72
2023-03-18T22:37:33.673Z,-23515.56
2023-03-18T22:39:36.347Z,-23514.75
2023-03-18T22:41:39.004Z,-23516.03
2023-03-18T22:43:41.630Z,-23515.06
2023-03-18T22:45:45.633Z,-23516.03
2023-03-18T22:47:48.314Z,-23516.19
2023-03-18T22:49:51.896Z,-23518.25
2023-03-18T22:51:54.842Z,-23519.81
2023-03-18T22:53:57.694Z,-23521.09
2023-03-18T22:56:05.397Z,-23518.88
2023-03-18T22:58:14.246Z,-23515.72
2023-03-18T23:00:23.025Z,-23516.66
2023-03-18T23:02:28.673Z,-23520.47
2023-03-18T23:04:31.866Z,-23521.25
2023-03-18T23:06:34.595Z,-23519.34
2023-03-18T23:08:38.598Z,-23520.31
2023-03-18T23:10:42.156Z,-23521.09
2023-03-18T23:12:44.904Z,-23517.63
2023-03-18T23:14:48.426Z,-23508.09
2023-03-18T23:16:51.182Z,-23511.91
2023-03-18T23:18:55.198Z,-23514.28
2023-03-18T23:20:57.990Z,-23514.75
2023-03-18T23:23:00.737Z,-23515.56
2023-03-18T23:25:03.510Z,-23515.41
2023-03-18T23:27:06.903Z,-23516.66
2023-03-18T23:29:09.655Z,-23514.44
2023-03-18T23:31:12.752Z,-23516.03
2023-03-18T23:33:15.835Z,-23516.81
2023-03-18T23:35:20.152Z,-23517.63
2023-03-18T23:37:24.136Z,-23515.72
2023-03-18T23:39:27.269Z,-23513.03
2023-03-18T23:41:29.873Z,-23513.81
2023-03-18T23:43:32.562Z,-23515.88
2023-03-18T23:45:35.593Z,-23519.81
2023-03-18T23:47:38.746Z,-23521.72
2023-03-18T23:49:41.457Z,-23522.53
2023-03-18T23:51:46.039Z,-23523.16
2023-03-18T23:53:48.726Z,-23520.31
2023-03-18T23:55:51.413Z,-23520.63
2023-03-18T23:57:54.067Z,-23522.69
2023-03-18T23:59:56.748Z,-23525.69
